NCAR-RAP Real-Time Weather Data

Output produced by METARs form (12 May 2021  10:31 UTC)
found at http://weather.rap.ucar.edu/surface/
 
KJKL 120953Z AUTO 00000KT 10SM OVC085 08/M01 A3028 RMK AO2 SLP248 T00831011
KJKL 120753Z AUTO 00000KT 10SM OVC100 09/M02 A3028 RMK AO2 SLP249 T00891017
KJKL 120653Z AUTO VRB03KT 10SM BKN110 09/M01 A3027 RMK AO2 SLP246 T00941011
KJKL 120553Z AUTO 10SM OVC100 10/M01 A3027 RMK AO2 SLP247 T01001011 10144 20100 51006
KJKL 120453Z AUTO VRB03KT 10SM OVC100 11/M01 A3027 RMK AO2 SLP245 T01061006 402000072
KJKL 120353Z AUTO 00000KT 10SM BKN110 11/01 A3027 RMK AO2 SLP244 T01110006
KJKL 120253Z AUTO 00000KT 10SM OVC100 11/01 A3026 RMK AO2 SLP242 T01110011 52023
KJKL 120153Z AUTO 03003KT 10SM CLR 12/02 A3022 RMK AO2 SLP232 T01220022
KJKL 120053Z AUTO 01006KT 10SM OVC110 13/03 A3021 RMK AO2 SLP229 T01330033
KJKL 112353Z AUTO VRB05KT 10SM OVC110 14/04 A3018 RMK AO2 SLP218 T01440044 10200 20144 53010
KJKL 112253Z AUTO VRB03KT 10SM OVC110 16/03 A3016 RMK AO2 SLP212 T01610028
KJKL 112153Z AUTO VRB04KT 10SM SCT060 18/03 A3017 RMK AO2 SLP212 T01830033
KJKL 112053Z AUTO VRB03KT 10SM BKN060 19/05 A3015 RMK AO2 SLP206 T01940050 55009
KJKL 111953Z AUTO 00000KT 10SM SCT060 SCT075 19/03 A3015 RMK AO2 SLP205 T01890028
KJKL 111853Z AUTO 01005KT 10SM BKN065 19/03 A3018 RMK AO2 SLP214 T01890028